createdAt,value
2024-05-09T00:00:45.564Z,76.95
2024-05-09T00:03:33.543Z,76.69
2024-05-09T00:06:01.524Z,76.74
2024-05-09T00:08:29.407Z,77.42
2024-05-09T00:10:57.440Z,77.49
2024-05-09T00:13:25.464Z,77.81
2024-05-09T00:15:53.248Z,78.45
2024-05-09T00:18:21.135Z,77.84
2024-05-09T00:20:49.164Z,78.20
2024-05-09T00:23:16.850Z,77.92
2024-05-09T00:25:45.072Z,77.73
2024-05-09T00:28:13.640Z,77.67
2024-05-09T00:30:41.339Z,77.41
2024-05-09T00:33:10.791Z,77.24
2024-05-09T00:35:39.810Z,77.10
2024-05-09T00:38:08.283Z,77.03
2024-05-09T00:40:42.005Z,77.73
2024-05-09T00:43:12.637Z,77.68
2024-05-09T00:45:42.090Z,77.50
2024-05-09T00:48:14.233Z,77.46
2024-05-09T00:50:46.541Z,77.71
2024-05-09T00:53:17.190Z,77.41
2024-05-09T00:55:46.530Z,77.01
2024-05-09T00:58:16.664Z,77.16
2024-05-09T01:00:44.873Z,78.09
2024-05-09T01:03:14.205Z,78.19
2024-05-09T01:05:43.845Z,78.70
2024-05-09T01:08:13.233Z,78.89
2024-05-09T01:10:44.278Z,78.56
2024-05-09T01:13:14.307Z,78.25
2024-05-09T01:15:43.031Z,77.91
2024-05-09T01:18:12.620Z,78.31
2024-05-09T01:20:44.671Z,78.66
2024-05-09T01:23:16.843Z,78.43
2024-05-09T01:25:46.523Z,78.12
2024-05-09T01:28:15.987Z,78.53
2024-05-09T01:30:44.212Z,78.08
2024-05-09T01:33:12.782Z,77.61
2024-05-09T01:35:42.575Z,77.51
2024-05-09T01:38:16.852Z,77.70
2024-05-09T01:40:45.481Z,77.39
2024-05-09T01:43:13.609Z,77.05
2024-05-09T01:45:41.595Z,76.54
2024-05-09T01:48:11.109Z,76.51
2024-05-09T01:50:42.434Z,76.67
2024-05-09T01:53:13.378Z,77.01
2024-05-09T01:55:43.204Z,76.98
2024-05-09T01:58:11.302Z,76.67
2024-05-09T02:00:42.210Z,76.59
2024-05-09T02:03:15.584Z,76.51
2024-05-09T02:05:47.869Z,76.24
2024-05-09T02:08:19.024Z,76.51
2024-05-09T02:10:48.891Z,76.52
2024-05-09T02:13:16.925Z,76.39
2024-05-09T02:15:44.767Z,76.48
2024-05-09T02:18:12.999Z,76.15
2024-05-09T02:20:43.251Z,76.04
2024-05-09T02:23:12.181Z,76.19
2024-05-09T02:25:41.762Z,76.63
2024-05-09T02:28:10.413Z,76.25
2024-05-09T02:30:41.174Z,76.11
2024-05-09T02:33:12.412Z,75.69
2024-05-09T02:35:43.617Z,75.65
2024-05-09T02:38:13.079Z,75.60
2024-05-09T02:40:41.448Z,75.43
2024-05-09T02:43:12.387Z,75.22
2024-05-09T02:45:40.977Z,74.83
2024-05-09T02:48:13.052Z,74.46
2024-05-09T02:50:43.914Z,74.28
2024-05-09T02:53:12.727Z,74.28
2024-05-09T02:55:41.916Z,74.43
2024-05-09T02:58:11.178Z,74.44
2024-05-09T03:00:42.070Z,74.12
2024-05-09T03:03:13.593Z,74.14
2024-05-09T03:05:44.783Z,74.04
2024-05-09T03:08:12.939Z,74.31
2024-05-09T03:10:42.749Z,74.02
2024-05-09T03:13:13.797Z,74.13
2024-05-09T03:15:43.406Z,74.27
2024-05-09T03:18:11.805Z,74.52
2024-05-09T03:20:40.489Z,74.43
2024-05-09T03:23:09.488Z,74.43
2024-05-09T03:25:38.757Z,74.42
2024-05-09T03:28:06.716Z,74.27
2024-05-09T03:30:40.899Z,73.99
2024-05-09T03:33:17.418Z,74.20
2024-05-09T03:35:47.052Z,74.09
2024-05-09T03:38:15.218Z,73.84
2024-05-09T03:40:50.973Z,73.84
2024-05-09T03:43:19.795Z,73.89
2024-05-09T03:45:49.514Z,73.64
2024-05-09T03:48:17.525Z,73.83
2024-05-09T03:50:45.571Z,74.14
2024-05-09T03:53:14.116Z,73.99
2024-05-09T03:55:45.265Z,73.89
2024-05-09T03:58:14.219Z,73.75
2024-05-09T04:00:43.563Z,73.63
2024-05-09T04:03:12.848Z,73.67
2024-05-09T04:05:44.198Z,73.70
2024-05-09T04:08:12.464Z,73.81
2024-05-09T04:10:40.554Z,73.44
2024-05-09T04:13:10.191Z,73.25
2024-05-09T04:15:38.727Z,73.08
2024-05-09T04:18:06.910Z,72.93
2024-05-09T04:20:39.382Z,72.89
2024-05-09T04:23:14.074Z,73.11
2024-05-09T04:25:46.754Z,73.23
2024-05-09T04:28:14.807Z,73.40
2024-05-09T04:30:43.369Z,73.27
2024-05-09T04:33:13.407Z,73.23
2024-05-09T04:35:44.262Z,73.00
2024-05-09T04:38:13.971Z,72.64
2024-05-09T04:40:42.300Z,72.28
2024-05-09T04:43:19.299Z,72.03
2024-05-09T04:45:48.068Z,72.06
2024-05-09T04:48:16.520Z,72.07
2024-05-09T04:50:44.808Z,71.97
2024-05-09T04:53:16.195Z,71.73
2024-05-09T04:55:44.521Z,71.51
2024-05-09T04:58:12.370Z,71.43
2024-05-09T05:00:42.518Z,71.43
2024-05-09T05:03:14.218Z,71.44
2024-05-09T05:05:45.981Z,71.60
2024-05-09T05:08:16.012Z,71.70
2024-05-09T05:10:44.891Z,71.68
2024-05-09T05:13:16.311Z,71.66
2024-05-09T05:15:44.280Z,71.39
2024-05-09T05:18:12.290Z,71.26
2024-05-09T05:20:40.166Z,71.37
2024-05-09T05:23:13.153Z,71.79
2024-05-09T05:25:41.742Z,71.63
2024-05-09T05:28:09.787Z,71.25
2024-05-09T05:30:38.783Z,71.10
2024-05-09T05:33:10.194Z,70.84
2024-05-09T05:35:38.407Z,70.89
2024-05-09T05:38:07.412Z,70.74
2024-05-09T05:40:38.262Z,70.71
2024-05-09T05:43:16.497Z,70.72
2024-05-09T05:45:45.291Z,70.77
2024-05-09T05:48:15.997Z,70.68
2024-05-09T05:50:44.577Z,70.68
2024-05-09T05:53:12.618Z,70.56
2024-05-09T05:55:40.908Z,70.42
2024-05-09T05:58:10.385Z,70.43
2024-05-09T06:00:40.129Z,70.36
2024-05-09T06:03:10.234Z,70.84
2024-05-09T06:05:48.194Z,71.37
2024-05-09T06:08:17.287Z,71.16
2024-05-09T06:10:45.217Z,71.20
2024-05-09T06:13:14.028Z,71.26
2024-05-09T06:15:43.029Z,70.90
2024-05-09T06:18:12.758Z,70.84
2024-05-09T06:20:43.316Z,71.86
2024-05-09T06:23:14.466Z,71.50
2024-05-09T06:25:44.127Z,70.56
2024-05-09T06:28:12.244Z,70.26
2024-05-09T06:30:42.008Z,69.97
2024-05-09T06:33:13.847Z,70.05
2024-05-09T06:35:44.740Z,69.98
2024-05-09T06:38:12.981Z,69.84
2024-05-09T06:40:42.813Z,69.52
2024-05-09T06:43:17.109Z,68.84
2024-05-09T06:45:52.963Z,68.53
2024-05-09T06:48:21.754Z,68.35
2024-05-09T06:50:50.320Z,68.43
2024-05-09T06:53:21.715Z,68.18
2024-05-09T06:55:49.973Z,67.97
2024-05-09T06:58:17.792Z,67.85
2024-05-09T07:00:45.493Z,67.53
2024-05-09T07:03:16.938Z,67.00
2024-05-09T07:05:48.117Z,67.01
2024-05-09T07:08:19.486Z,66.69
2024-05-09T07:10:47.637Z,66.52
2024-05-09T07:13:16.132Z,66.38
2024-05-09T07:15:44.244Z,66.32
2024-05-09T07:18:17.190Z,66.07
2024-05-09T07:20:47.660Z,66.01
2024-05-09T07:23:16.914Z,65.70
2024-05-09T07:25:44.820Z,65.80
2024-05-09T07:28:17.712Z,66.62
2024-05-09T07:30:45.651Z,66.31
2024-05-09T07:33:18.749Z,66.51
2024-05-09T07:35:47.860Z,66.04
2024-05-09T07:38:16.235Z,66.00
2024-05-09T07:40:44.234Z,66.19
2024-05-09T07:43:12.741Z,66.03
2024-05-09T07:45:50.439Z,65.92
2024-05-09T07:52:38.477Z,65.38
2024-05-09T07:53:47.138Z,64.93
2024-05-09T07:56:20.264Z,65.17
2024-05-09T07:58:51.914Z,64.96
2024-05-09T08:01:20.307Z,65.11
2024-05-09T08:03:48.458Z,65.44
2024-05-09T08:06:16.300Z,65.92
2024-05-09T08:08:48.990Z,65.43
2024-05-09T08:11:16.626Z,65.20
2024-05-09T08:13:44.317Z,65.41
2024-05-09T08:16:13.915Z,64.15
2024-05-09T08:18:41.908Z,63.71
2024-05-09T08:21:09.966Z,63.70
2024-05-09T08:23:37.763Z,63.71
2024-05-09T08:26:05.753Z,64.38
2024-05-09T08:28:33.227Z,63.36
2024-05-09T08:31:04.174Z,62.65
2024-05-09T08:33:35.387Z,63.30
2024-05-09T08:36:03.428Z,63.37
2024-05-09T08:38:31.040Z,63.86
2024-05-09T08:40:59.747Z,63.94
2024-05-09T08:43:29.295Z,64.41
2024-05-09T08:45:59.220Z,64.34
2024-05-09T08:48:27.290Z,64.99
2024-05-09T08:50:59.256Z,64.54
2024-05-09T08:53:27.370Z,62.99
2024-05-09T08:56:00.963Z,62.94
2024-05-09T08:58:31.625Z,62.78
2024-05-09T09:01:01.237Z,62.48
2024-05-09T09:03:32.971Z,61.24
2024-05-09T09:06:10.368Z,61.75
2024-05-09T09:08:39.644Z,62.31
2024-05-09T09:11:07.549Z,61.82
2024-05-09T09:13:35.216Z,62.34
2024-05-09T09:16:03.461Z,60.80
2024-05-09T09:18:32.799Z,59.98
2024-05-09T09:21:03.505Z,59.53
2024-05-09T09:23:31.327Z,60.26
2024-05-09T09:25:59.935Z,60.88
2024-05-09T09:28:28.043Z,60.88
2024-05-09T09:31:05.374Z,60.28
2024-05-09T09:33:35.904Z,59.38
2024-05-09T09:36:07.493Z,57.74
2024-05-09T09:38:37.536Z,57.08
2024-05-09T09:41:08.409Z,57.56
2024-05-09T09:43:37.276Z,57.48
2024-05-09T09:46:08.803Z,57.73
2024-05-09T09:48:40.312Z,56.57
2024-05-09T09:51:09.233Z,56.69
2024-05-09T09:53:38.203Z,56.81
2024-05-09T09:56:09.824Z,55.86
2024-05-09T09:58:40.138Z,55.78
2024-05-09T10:01:07.798Z,55.60
2024-05-09T10:03:37.010Z,55.19
2024-05-09T10:06:07.189Z,54.20
2024-05-09T10:08:36.089Z,52.80
2024-05-09T10:11:04.188Z,51.98
2024-05-09T10:13:35.275Z,51.68
2024-05-09T10:16:09.352Z,50.91
2024-05-09T10:18:38.639Z,52.25
2024-05-09T10:21:20.178Z,51.50
2024-05-09T10:24:02.885Z,50.88
2024-05-09T10:26:39.328Z,50.11
2024-05-09T10:29:14.732Z,49.37
2024-05-09T10:31:47.779Z,50.13
2024-05-09T10:34:23.425Z,50.93
2024-05-09T10:36:55.583Z,51.97
2024-05-09T10:39:25.315Z,52.22
2024-05-09T10:41:53.049Z,52.68
2024-05-09T10:44:21.873Z,52.82
2024-05-09T10:46:53.600Z,53.48
2024-05-09T10:49:22.638Z,53.83
2024-05-09T10:51:50.737Z,54.72
2024-05-09T10:54:18.622Z,55.43
2024-05-09T10:56:46.242Z,56.48
2024-05-09T10:59:14.124Z,55.85
2024-05-09T11:01:41.934Z,55.18
2024-05-09T11:04:09.811Z,54.65
2024-05-09T11:06:38.907Z,55.04
2024-05-09T11:09:07.629Z,54.94
2024-05-09T11:11:35.599Z,55.10
2024-05-09T11:14:11.432Z,55.00
2024-05-09T11:16:39.294Z,55.34
2024-05-09T11:19:13.459Z,54.56
2024-05-09T11:21:41.360Z,54.12
2024-05-09T11:24:11.368Z,53.52
2024-05-09T11:26:39.542Z,54.65
2024-05-09T11:29:07.180Z,54.53
2024-05-09T11:31:48.931Z,53.25
2024-05-09T11:34:16.954Z,54.05
2024-05-09T11:36:44.879Z,53.58
2024-05-09T11:39:14.657Z,52.58
2024-05-09T11:41:42.654Z,52.53
2024-05-09T11:44:10.455Z,51.39
2024-05-09T11:46:38.366Z,50.59
2024-05-09T11:49:07.818Z,50.43
2024-05-09T11:51:35.828Z,50.38
2024-05-09T11:54:03.639Z,50.08
2024-05-09T11:56:31.606Z,48.69
2024-05-09T11:58:59.198Z,49.02
2024-05-09T12:01:27.892Z,50.23
2024-05-09T12:03:56.094Z,49.11
2024-05-09T12:06:24.184Z,48.62
2024-05-09T12:08:51.785Z,48.94
2024-05-09T12:11:19.711Z,48.54
2024-05-09T12:13:47.406Z,48.74
2024-05-09T12:16:15.297Z,49.50
2024-05-09T12:18:43.535Z,53.08
2024-05-09T12:21:11.501Z,54.79
2024-05-09T12:23:40.387Z,55.11
2024-05-09T12:26:10.712Z,55.63
2024-05-09T12:28:38.458Z,55.05
2024-05-09T12:31:06.036Z,55.14
2024-05-09T12:33:33.774Z,55.13
2024-05-09T12:36:01.874Z,55.11
2024-05-09T12:38:29.665Z,55.24
2024-05-09T12:40:57.389Z,55.31
2024-05-09T12:43:25.262Z,55.81
2024-05-09T12:45:52.988Z,55.50
2024-05-09T12:48:21.017Z,54.99
2024-05-09T12:50:48.751Z,54.83
2024-05-09T12:53:16.712Z,54.53
2024-05-09T12:55:53.022Z,54.75
2024-05-09T12:58:24.826Z,55.25
2024-05-09T13:00:52.903Z,56.28
2024-05-09T13:03:21.792Z,56.65
2024-05-09T13:05:51.369Z,56.67
2024-05-09T13:08:19.824Z,56.44
2024-05-09T13:10:47.957Z,56.51
2024-05-09T13:13:15.811Z,56.16
2024-05-09T13:15:43.531Z,55.78
2024-05-09T13:18:11.442Z,56.30
2024-05-09T13:20:39.239Z,56.31
2024-05-09T13:23:08.350Z,55.66
2024-05-09T13:25:37.925Z,54.66
2024-05-09T13:28:07.487Z,53.27
2024-05-09T13:30:40.242Z,53.12
2024-05-09T13:33:11.854Z,51.35
2024-05-09T13:35:45.734Z,50.30
2024-05-09T13:38:21.371Z,50.82
2024-05-09T13:40:50.438Z,50.61
2024-05-09T13:43:18.923Z,51.10
2024-05-09T13:45:47.591Z,51.90
2024-05-09T13:48:15.713Z,51.97
2024-05-09T13:50:43.556Z,52.15
2024-05-09T13:53:11.767Z,52.30
2024-05-09T13:55:40.724Z,52.39
2024-05-09T13:58:09.511Z,53.11
2024-05-09T14:00:46.295Z,53.53
2024-05-09T14:03:20.070Z,53.27
2024-05-09T14:05:51.173Z,52.35
2024-05-09T14:08:21.574Z,50.88
2024-05-09T14:10:49.589Z,49.57
2024-05-09T14:13:17.785Z,50.08
2024-05-09T14:15:47.101Z,49.96
2024-05-09T14:18:15.329Z,50.30
2024-05-09T14:20:43.327Z,50.84
2024-05-09T14:23:11.425Z,50.11
2024-05-09T14:25:42.294Z,49.34
2024-05-09T14:28:12.156Z,49.90
2024-05-09T14:30:41.095Z,49.70
2024-05-09T14:33:09.532Z,50.51
2024-05-09T14:35:38.930Z,50.34
2024-05-09T14:38:08.984Z,50.75
2024-05-09T14:40:42.310Z,51.13
2024-05-09T14:43:13.862Z,51.49
2024-05-09T14:45:43.378Z,51.74
2024-05-09T14:48:14.657Z,51.67
2024-05-09T14:50:42.776Z,51.91
2024-05-09T14:53:12.032Z,52.02
2024-05-09T14:55:41.860Z,52.21
2024-05-09T14:58:12.205Z,52.38
2024-05-09T15:00:46.155Z,52.34
2024-05-09T15:03:21.343Z,52.40
2024-05-09T15:05:50.571Z,52.54
2024-05-09T15:08:20.039Z,52.75
2024-05-09T15:10:49.444Z,52.58
2024-05-09T15:13:18.642Z,52.98
2024-05-09T15:15:46.801Z,53.37
2024-05-09T15:18:15.028Z,53.27
2024-05-09T15:20:44.640Z,53.37
2024-05-09T15:23:13.082Z,53.44
2024-05-09T15:25:41.056Z,53.74
2024-05-09T15:28:08.838Z,54.50
2024-05-09T15:30:36.953Z,55.00
2024-05-09T15:33:06.826Z,55.12
2024-05-09T15:35:35.719Z,55.15
2024-05-09T15:38:04.444Z,55.41
2024-05-09T15:40:39.487Z,55.77
2024-05-09T15:43:10.878Z,55.80
2024-05-09T15:45:41.188Z,55.23
2024-05-09T15:48:10.733Z,55.02
2024-05-09T15:50:41.486Z,54.93
2024-05-09T15:53:13.045Z,54.84
2024-05-09T15:55:42.481Z,54.89
2024-05-09T15:58:12.218Z,54.87
2024-05-09T16:00:43.689Z,54.57
2024-05-09T16:03:14.226Z,54.27
2024-05-09T16:05:47.777Z,54.18
2024-05-09T16:08:16.425Z,54.24
2024-05-09T16:10:47.826Z,54.28
2024-05-09T16:13:17.323Z,54.40
2024-05-09T16:15:46.011Z,54.67
2024-05-09T16:18:14.123Z,55.52
2024-05-09T16:20:43.509Z,55.45
2024-05-09T16:23:12.756Z,55.21
2024-05-09T16:25:46.179Z,54.73
2024-05-09T16:28:14.516Z,54.74
2024-05-09T16:30:42.413Z,55.10
2024-05-09T16:33:11.714Z,55.35
2024-05-09T16:35:40.114Z,55.18
2024-05-09T16:38:08.090Z,55.33
2024-05-09T16:40:39.900Z,55.42
2024-05-09T16:43:10.672Z,55.47
2024-05-09T16:45:44.602Z,56.18
2024-05-09T16:48:14.292Z,56.17
2024-05-09T16:50:42.474Z,56.22
2024-05-09T16:53:10.072Z,56.07
2024-05-09T16:55:38.501Z,55.98
2024-05-09T16:58:07.995Z,56.00
2024-05-09T17:00:41.362Z,55.99
2024-05-09T17:03:14.786Z,56.23
2024-05-09T17:05:46.904Z,56.15
2024-05-09T17:08:17.701Z,56.20
2024-05-09T17:10:46.448Z,56.39
2024-05-09T17:13:14.721Z,56.60
2024-05-09T17:15:44.783Z,56.44
2024-05-09T17:18:12.677Z,56.29
2024-05-09T17:20:40.382Z,56.28
2024-05-09T17:23:13.738Z,56.01
2024-05-09T17:25:42.854Z,56.13
2024-05-09T17:28:11.122Z,56.28
2024-05-09T17:30:41.553Z,56.35
2024-05-09T17:33:11.722Z,56.61
2024-05-09T17:35:40.711Z,56.90
2024-05-09T17:38:08.949Z,57.00
2024-05-09T17:40:38.322Z,56.85
2024-05-09T17:43:09.729Z,56.80
2024-05-09T17:45:41.186Z,56.81
2024-05-09T17:48:11.497Z,56.80
2024-05-09T17:50:41.248Z,56.80
2024-05-09T17:53:10.436Z,57.20
2024-05-09T17:55:39.714Z,57.25
2024-05-09T17:58:07.803Z,57.20
2024-05-09T18:00:39.670Z,57.34
2024-05-09T18:03:11.850Z,57.37
2024-05-09T18:05:43.190Z,57.31
2024-05-09T18:08:12.823Z,57.22
2024-05-09T18:10:41.635Z,57.26
2024-05-09T18:13:11.247Z,57.61
2024-05-09T18:15:40.048Z,57.56
2024-05-09T18:18:10.827Z,57.49
2024-05-09T18:20:43.922Z,57.09
2024-05-09T18:23:16.476Z,57.03
2024-05-09T18:25:47.348Z,57.02
2024-05-09T18:28:17.152Z,56.94
2024-05-09T18:30:46.514Z,57.05
2024-05-09T18:33:16.262Z,57.20
2024-05-09T18:35:45.184Z,57.26
2024-05-09T18:38:15.807Z,57.18
2024-05-09T18:40:46.103Z,57.19
2024-05-09T18:43:16.549Z,57.09
2024-05-09T18:45:45.467Z,57.00
2024-05-09T18:48:13.671Z,57.06
2024-05-09T18:50:41.901Z,57.05
2024-05-09T18:53:12.358Z,57.28
2024-05-09T18:55:41.693Z,57.62
2024-05-09T18:58:09.642Z,57.62
2024-05-09T19:00:40.346Z,57.55
2024-05-09T19:03:13.036Z,57.24
2024-05-09T19:05:44.671Z,56.99
2024-05-09T19:08:14.913Z,57.45
2024-05-09T19:10:47.441Z,57.97
2024-05-09T19:13:16.309Z,58.13
2024-05-09T19:15:44.635Z,58.53
2024-05-09T19:18:13.684Z,58.24
2024-05-09T19:20:43.470Z,58.18
2024-05-09T19:23:11.403Z,58.01
2024-05-09T19:25:39.767Z,57.88
2024-05-09T19:28:07.561Z,57.85
2024-05-09T19:30:40.326Z,57.74
2024-05-09T19:33:14.843Z,57.65
2024-05-09T19:35:43.662Z,57.70
2024-05-09T19:38:12.315Z,57.81
2024-05-09T19:40:40.358Z,57.74
2024-05-09T19:43:08.648Z,57.38
2024-05-09T19:45:37.850Z,57.29
2024-05-09T19:48:06.814Z,57.42
2024-05-09T19:50:41.620Z,57.55
2024-05-09T19:53:13.602Z,57.53
2024-05-09T19:55:42.189Z,57.70
2024-05-09T19:58:11.392Z,57.66
2024-05-09T20:00:42.349Z,57.53
2024-05-09T20:03:13.092Z,57.65
2024-05-09T20:05:44.290Z,57.54
2024-05-09T20:08:12.723Z,57.52
2024-05-09T20:10:40.388Z,57.65
2024-05-09T20:13:08.776Z,57.43
2024-05-09T20:15:37.666Z,57.35
2024-05-09T20:18:06.918Z,57.41
2024-05-09T20:20:40.105Z,58.72
2024-05-09T20:23:12.268Z,59.99
2024-05-09T20:25:42.308Z,59.84
2024-05-09T20:28:10.777Z,59.69
2024-05-09T20:30:38.957Z,59.82
2024-05-09T20:33:09.201Z,60.03
2024-05-09T20:35:38.043Z,61.02
2024-05-09T20:38:07.063Z,60.70
2024-05-09T20:40:37.977Z,60.31
2024-05-09T20:43:09.464Z,60.35
2024-05-09T20:45:38.286Z,60.36
2024-05-09T20:48:07.353Z,60.17
2024-05-09T20:50:39.625Z,59.99
2024-05-09T20:53:11.871Z,59.62
2024-05-09T20:55:40.185Z,59.43
2024-05-09T20:58:08.180Z,59.02
2024-05-09T21:00:40.330Z,59.19
2024-05-09T21:03:13.376Z,59.18
2024-05-09T21:05:42.256Z,59.02
2024-05-09T21:08:10.364Z,58.95
2024-05-09T21:10:38.284Z,59.01
2024-05-09T21:13:07.501Z,58.89
2024-05-09T21:15:36.120Z,58.89
2024-05-09T21:18:05.355Z,58.95
2024-05-09T21:20:34.576Z,58.99
2024-05-09T21:23:03.116Z,59.01
2024-05-09T21:25:32.000Z,58.96
2024-05-09T21:28:00.588Z,59.52
2024-05-09T21:30:38.365Z,59.65
2024-05-09T21:33:12.098Z,59.58
2024-05-09T21:35:42.958Z,59.39
2024-05-09T21:38:10.967Z,59.34
2024-05-09T21:40:40.235Z,59.34
2024-05-09T21:43:08.366Z,59.59
2024-05-09T21:45:36.374Z,59.79
2024-05-09T21:48:05.755Z,59.55
2024-05-09T21:50:39.811Z,59.57
2024-05-09T21:53:11.201Z,59.44
2024-05-09T21:55:39.042Z,59.44
2024-05-09T21:58:07.347Z,59.34
2024-05-09T22:00:38.360Z,59.21
2024-05-09T22:03:08.222Z,59.09
2024-05-09T22:05:38.924Z,58.84
2024-05-09T22:08:07.493Z,58.96
2024-05-09T22:10:36.822Z,58.84
2024-05-09T22:13:06.487Z,59.04
2024-05-09T22:15:36.816Z,58.91
2024-05-09T22:18:07.451Z,59.18
2024-05-09T22:20:38.513Z,59.46
2024-05-09T22:23:08.487Z,59.40
2024-05-09T22:25:38.521Z,59.34
2024-05-09T22:28:07.254Z,59.33
2024-05-09T22:30:38.584Z,59.36
2024-05-09T22:33:10.123Z,59.50
2024-05-09T22:35:41.927Z,59.78
2024-05-09T22:38:11.718Z,59.87
2024-05-09T22:40:47.116Z,59.82
2024-05-09T22:43:22.782Z,59.70
2024-05-09T22:45:56.243Z,59.81
2024-05-09T22:48:25.423Z,59.61
2024-05-09T22:50:54.219Z,59.96
2024-05-09T22:53:26.026Z,60.09
2024-05-09T22:55:54.304Z,60.67
2024-05-09T22:58:23.609Z,60.87
2024-05-09T23:00:52.164Z,60.52
2024-05-09T23:03:21.709Z,60.61
2024-05-09T23:05:50.948Z,60.64
2024-05-09T23:08:18.614Z,61.10
2024-05-09T23:10:46.901Z,60.97
2024-05-09T23:13:16.312Z,60.98
2024-05-09T23:15:45.221Z,61.32
2024-05-09T23:18:13.151Z,61.43
2024-05-09T23:20:41.014Z,61.30
2024-05-09T23:23:10.555Z,61.31
2024-05-09T23:25:43.070Z,61.37
2024-05-09T23:28:12.834Z,61.28
2024-05-09T23:30:41.602Z,60.93
2024-05-09T23:33:12.209Z,60.64
2024-05-09T23:35:44.500Z,60.33
2024-05-09T23:38:13.777Z,59.40
2024-05-09T23:40:42.717Z,59.11
2024-05-09T23:43:12.464Z,59.22
2024-05-09T23:45:42.868Z,59.18
2024-05-09T23:48:11.499Z,58.87
2024-05-09T23:50:40.578Z,58.65
2024-05-09T23:53:10.163Z,58.77
2024-05-09T23:55:39.968Z,58.61
2024-05-09T23:58:09.294Z,58.48
